Details From SVMI - Caracas Simon Bolivar Intl
To TNCM - St Maarten - Princess Juliana Intl
Flight Number -
Tags Decoded
Created
Modified
Stats Distance 531 nm / 983 km
Max Altitude 0 ft / 0 m
Waypoints 5
Social Downloads 5
Likes 0
Share VATSIM

Download

Looking for another format? Having issues loading an existing format? Contact us
Advertisement - Login to hide

Notes

Decoded

Route

SVMI MIQ SILVA DANDE TNCM

ID Type Via Altitude Latitude Longitude Leg Dist Tot Dist Heading (true) Name
O SVMI APT - 0 ft / 0 m 10.59869˚ -66.99768˚ - 0 nm - -
MIQ VOR - 0 ft / 0 m 10.60947˚ -66.98967˚ 0 nm 0 nm 36° / 36° MAIQUETIA VOR-DME
SILVA FIX - 0 ft / 0 m 14.45000˚ -66.70000˚ 231 nm 232 nm 4° / 4° -
DANDE FIX - 0 ft / 0 m 17.50419˚ -63.66467˚ 253 nm 485 nm 43° / 44° -
O TNCM APT - 0 ft / 0 m 18.03937˚ -63.11961˚ 44 nm 530 nm 44° / 44° -

Altitude Profile

Advertisement - Login to hide

Weather


0- 5 10 15 20 25 30 35+ Temperature / ° C

Clouds and Precipitation
Forecast for 2017-12-14 00:00 UTC. Updated 2 hours ago

Ground ~20,000 ft ~40,000 ft Winds

SVMI

Details ICAO SVMI (CCS)
Name Caracas Simon Bolivar Intl
Region Venezuela
Timezone America/Caracas (UTC-4.0)
Stats Elevation 235 ft / 72 m (AMSL)
Location 10.603119° -66.990585°
Runways 2
Magnetic Variation 12.288° W

METAR

SVMI 132000Z 36006KT 9999 SCT016 29/23 Q1011

Decode

TAF

TAF SVMI 131000Z 1312/1412 00000KT 9999 FEW016 TX30/19Z TN21/09Z BECMG 1314/1318 05008KT 9999 SCT016

Decode

Departure Runways

ID Width Length Bearing (true) Bearing (mag) Surface Threshold Offset Overrun Length
09 145 ft / 44 m 9,825 ft / 2,995 m 75.92° 88.21° Asphalt 0 ft / 0 m 0 ft / 0 m
10 148 ft / 45 m 11,472 ft / 3,497 m 88.14° 100.43° Asphalt 0 ft / 0 m 200 ft / 61 m
27 145 ft / 44 m 9,825 ft / 2,995 m 255.92° 268.21° Asphalt 0 ft / 0 m 0 ft / 0 m
28 148 ft / 45 m 11,472 ft / 3,497 m 268.15° 280.44° Asphalt 0 ft / 0 m 200 ft / 61 m

TNCM

Details ICAO TNCM (SXM)
Name St Maarten - Princess Juliana Intl
Region Caribbean Netherlands, Aruba, Curaçao, Sint Maarten
Timezone Unknown (UTC+0.0)
Stats Elevation 12 ft / 4 m (AMSL)
Location 18.040889° -63.108974°
Runways 1
Magnetic Variation 14.325° W

METAR

TNCM 132000Z 13007KT 100V170 9999 FEW019 28/23 Q1015 A2998 NOSIG

Decode

TAF

TNCM 131739Z 1318/1418 14010KT P6SM VCSH FEW020 FM132300 09006KT P6SM SCT022 FM141200 13012KT P6SM FEW022

Decode

Destination Runways

ID Width Length Bearing (true) Bearing (mag) Surface Threshold Offset Overrun Length
10 148 ft / 45 m 7,464 ft / 2,275 m 81.43° 95.76° Asphalt 0 ft / 0 m 151 ft / 46 m
28 148 ft / 45 m 7,464 ft / 2,275 m 261.44° 275.77° Asphalt 397 ft / 121 m 0 ft / 0 m

Popular Alternatives